Time;durP1;ratioP1;P1;durP2;ratioP2;P2;SDS_P1;SDS_P2;PMS_P1;PMS_P2;Temp;Humidity;BMP_temperature;BMP_pressure;BME280_temperature;BME280_humidity;BME280_pressure;Samples;Min_cycle;Max_cycle;Signal;HPM_P1;HPM_P2
2021/11/06 00:02:08;;;;;;;0.10;0.10;;;;;;;;;;5958150;24;20347;-90
2021/11/06 00:04:34;;;;;;;0.10;0.10;;;;;;;;;;5981151;24;20016;-89
2021/11/06 00:07:00;;;;;;;0.10;0.10;;;;;;;;;;5958280;24;20383;-90
2021/11/06 00:09:26;;;;;;;0.10;0.10;;;;;;;;;;5981261;24;20396;-90
2021/11/06 00:11:52;;;;;;;0.10;0.10;;;;;;;;;;5958142;24;20051;-90
2021/11/06 00:14:17;;;;;;;0.10;0.10;;;;;;;;;;5981856;23;20099;-90
2021/11/06 00:16:43;;;;;;;0.10;0.10;;;;;;;;;;5980991;23;20111;-89
2021/11/06 00:19:09;;;;;;;0.10;0.10;;;;;;;;;;5958150;24;20023;-89
2021/11/06 00:21:35;;;;;;;0.10;0.10;;;;;;;;;;5958084;24;20012;-89
2021/11/06 00:24:01;;;;;;;0.10;0.10;;;;;;;;;;5981077;24;20450;-89
2021/11/06 00:26:27;;;;;;;0.10;0.10;;;;;;;;;;5981002;23;20020;-89
2021/11/06 00:28:53;;;;;;;0.10;0.10;;;;;;;;;;5980956;24;20012;-89
2021/11/06 00:31:19;;;;;;;0.10;0.10;;;;;;;;;;5981170;23;20091;-89
2021/11/06 00:33:45;;;;;;;0.10;0.10;;;;;;;;;;5980592;23;20020;-89
2021/11/06 00:36:11;;;;;;;0.00;0.00;;;;;;;;;;5956517;24;20422;-90
2021/11/06 00:38:37;;;;;;;0.10;0.10;;;;;;;;;;5956341;24;20079;-90
2021/11/06 00:41:03;;;;;;;0.10;0.10;;;;;;;;;;5979397;24;20430;-90
2021/11/06 00:43:30;;;;;;;0.10;0.10;;;;;;;;;;5956078;24;20024;-90
2021/11/06 00:45:56;;;;;;;0.10;0.10;;;;;;;;;;5979502;24;20156;-90
2021/11/06 00:48:22;;;;;;;0.10;0.10;;;;;;;;;;5956273;24;20379;-90
2021/11/06 00:50:48;;;;;;;0.10;0.10;;;;;;;;;;5979677;24;20016;-90
2021/11/06 00:53:14;;;;;;;0.10;0.10;;;;;;;;;;5956536;24;20016;-90
2021/11/06 00:55:40;;;;;;;0.10;0.10;;;;;;;;;;5956167;24;20060;-90
2021/11/06 00:58:06;;;;;;;0.10;0.10;;;;;;;;;;5979677;24;20099;-91
2021/11/06 01:00:32;;;;;;;0.10;0.10;;;;;;;;;;5979312;23;20038;-90
2021/11/06 01:02:58;;;;;;;0.10;0.10;;;;;;;;;;5979505;23;20404;-90
2021/11/06 01:05:24;;;;;;;0.10;0.10;;;;;;;;;;5956199;24;20062;-90
2021/11/06 01:07:50;;;;;;;0.10;0.10;;;;;;;;;;5979667;23;20442;-90
2021/11/06 01:10:16;;;;;;;0.10;0.10;;;;;;;;;;5979027;24;20013;-90
2021/11/06 01:12:43;;;;;;;0.10;0.10;;;;;;;;;;5956328;24;20338;-90
2021/11/06 01:15:10;;;;;;;0.10;0.10;;;;;;;;;;5979348;23;20472;-90
2021/11/06 01:17:36;;;;;;;0.10;0.10;;;;;;;;;;5956119;24;20458;-90
2021/11/06 01:20:02;;;;;;;0.10;0.10;;;;;;;;;;5979938;24;20020;-89
2021/11/06 01:22:28;;;;;;;0.10;0.10;;;;;;;;;;5979255;24;20016;-90
2021/11/06 01:24:54;;;;;;;0.10;0.10;;;;;;;;;;5956395;24;20107;-90
2021/11/06 01:27:20;;;;;;;0.10;0.10;;;;;;;;;;5979604;24;20012;-90
2021/11/06 01:29:47;;;;;;;0.10;0.10;;;;;;;;;;5956162;24;20091;-90
2021/11/06 01:32:13;;;;;;;0.10;0.10;;;;;;;;;;5956205;24;20012;-90
2021/11/06 01:34:39;;;;;;;0.10;0.10;;;;;;;;;;5912706;24;1068497;-90
2021/11/06 01:37:05;;;;;;;0.10;0.10;;;;;;;;;;6004111;23;20379;-90
2021/11/06 01:39:31;;;;;;;0.10;0.10;;;;;;;;;;5980623;24;20051;-90
2021/11/06 01:41:57;;;;;;;0.10;0.10;;;;;;;;;;5980515;24;20023;-90
2021/11/06 01:44:27;;;;;;;0.10;0.10;;;;;;;;;;5957484;24;20091;-90
2021/11/06 01:46:53;;;;;;;0.10;0.10;;;;;;;;;;5957664;24;20035;-90
2021/11/06 01:49:20;;;;;;;0.10;0.10;;;;;;;;;;5980531;24;20498;-90
2021/11/06 01:51:47;;;;;;;0.10;0.10;;;;;;;;;;5957179;24;20050;-90
2021/11/06 01:54:13;;;;;;;0.10;0.10;;;;;;;;;;5980289;23;20431;-90
2021/11/06 01:56:39;;;;;;;0.10;0.10;;;;;;;;;;5980270;23;20020;-90
2021/11/06 01:59:05;;;;;;;0.10;0.10;;;;;;;;;;5957355;24;20016;-89
2021/11/06 02:01:31;;;;;;;0.10;0.10;;;;;;;;;;5980315;23;20054;-89
2021/11/06 02:03:57;;;;;;;0.10;0.10;;;;;;;;;;5980271;23;20024;-90
2021/11/06 02:06:23;;;;;;;0.08;0.08;;;;;;;;;;5956962;24;20163;-90
2021/11/06 02:08:49;;;;;;;0.10;0.10;;;;;;;;;;5957148;24;20016;-90
2021/11/06 02:11:15;;;;;;;0.10;0.10;;;;;;;;;;5980046;24;20020;-90
2021/11/06 02:13:41;;;;;;;0.10;0.10;;;;;;;;;;5979989;24;20012;-90
2021/11/06 02:16:07;;;;;;;0.10;0.10;;;;;;;;;;5980499;24;20024;-89
2021/11/06 02:18:33;;;;;;;0.10;0.10;;;;;;;;;;5980082;23;20016;-89
2021/11/06 02:21:02;;;;;;;0.10;0.10;;;;;;;;;;5957040;24;20020;-89
2021/11/06 02:23:28;;;;;;;0.10;0.10;;;;;;;;;;5956860;24;20394;-89
2021/11/06 02:25:54;;;;;;;0.10;0.10;;;;;;;;;;5979868;23;20030;-89
2021/11/06 02:28:20;;;;;;;0.10;0.10;;;;;;;;;;5979891;24;20012;-89
2021/11/06 02:30:46;;;;;;;0.10;0.10;;;;;;;;;;5980018;24;20016;-89
2021/11/06 02:33:12;;;;;;;0.10;0.10;;;;;;;;;;5979899;24;20392;-89
2021/11/06 02:35:38;;;;;;;0.10;0.10;;;;;;;;;;5979684;23;20024;-90
2021/11/06 02:38:04;;;;;;;0.10;0.10;;;;;;;;;;5956674;24;20024;-89
2021/11/06 02:40:30;;;;;;;0.10;0.10;;;;;;;;;;5980009;24;20027;-89
2021/11/06 02:42:56;;;;;;;0.05;0.05;;;;;;;;;;5956747;24;20024;-89
2021/11/06 02:45:22;;;;;;;0.10;0.10;;;;;;;;;;5979840;24;20078;-89
2021/11/06 02:47:49;;;;;;;0.10;0.10;;;;;;;;;;5956914;24;20087;-90
2021/11/06 02:50:15;;;;;;;0.10;0.10;;;;;;;;;;5980008;24;20016;-89
2021/11/06 02:52:41;;;;;;;0.10;0.10;;;;;;;;;;6003569;23;20346;-89
2021/11/06 02:55:07;;;;;;;0.10;0.10;;;;;;;;;;5979839;23;20039;-89
2021/11/06 02:57:33;;;;;;;0.10;0.10;;;;;;;;;;5956621;24;20327;-90
2021/11/06 03:00:00;;;;;;;0.10;0.10;;;;;;;;;;5979985;23;20027;-89
2021/11/06 03:02:26;;;;;;;0.10;0.10;;;;;;;;;;5979985;24;20115;-89
2021/11/06 03:04:53;;;;;;;0.10;0.10;;;;;;;;;;5956633;24;20017;-91
2021/11/06 03:07:19;;;;;;;0.10;0.10;;;;;;;;;;5956746;24;20392;-90
2021/11/06 03:09:45;;;;;;;0.10;0.10;;;;;;;;;;5979829;24;20076;-90
2021/11/06 03:12:11;;;;;;;0.10;0.10;;;;;;;;;;5980181;23;20467;-90
2021/11/06 03:14:37;;;;;;;0.10;0.10;;;;;;;;;;5956820;24;20016;-90
2021/11/06 03:17:04;;;;;;;0.10;0.10;;;;;;;;;;5979766;23;20012;-90
2021/11/06 03:19:30;;;;;;;0.10;0.10;;;;;;;;;;5980185;23;20084;-90
2021/11/06 03:21:56;;;;;;;0.10;0.10;;;;;;;;;;5979860;24;20012;-90
2021/11/06 03:24:22;;;;;;;0.10;0.10;;;;;;;;;;5956612;24;20024;-90
2021/11/06 03:26:48;;;;;;;0.10;0.10;;;;;;;;;;5956661;24;20012;-90
2021/11/06 03:29:14;;;;;;;0.10;0.10;;;;;;;;;;5956474;24;20012;-89
2021/11/06 03:31:40;;;;;;;0.10;0.10;;;;;;;;;;5956615;24;20016;-90
2021/11/06 03:34:06;;;;;;;0.10;0.10;;;;;;;;;;5957238;24;20024;-90
2021/11/06 03:36:31;;;;;;;0.10;0.10;;;;;;;;;;5958426;24;20022;-90
2021/11/06 03:38:57;;;;;;;0.10;0.10;;;;;;;;;;5958274;24;20012;-90
2021/11/06 03:41:23;;;;;;;0.10;0.10;;;;;;;;;;5981324;23;20016;-90
2021/11/06 03:43:49;;;;;;;0.10;0.10;;;;;;;;;;5981436;24;20020;-90
2021/11/06 03:46:15;;;;;;;0.10;0.10;;;;;;;;;;5981368;24;20392;-90
2021/11/06 03:48:42;;;;;;;0.10;0.10;;;;;;;;;;5958223;24;20068;-90
2021/11/06 03:51:08;;;;;;;0.10;0.10;;;;;;;;;;5958303;24;20076;-90
2021/11/06 03:53:34;;;;;;;0.00;0.00;;;;;;;;;;5981307;24;20012;-90
2021/11/06 03:56:02;;;;;;;0.10;0.10;;;;;;;;;;5981614;23;20180;-90
2021/11/06 03:58:28;;;;;;;0.10;0.10;;;;;;;;;;5981426;24;20020;-90
2021/11/06 04:00:54;;;;;;;0.10;0.10;;;;;;;;;;5981639;24;20020;-89
2021/11/06 04:03:20;;;;;;;0.10;0.10;;;;;;;;;;5958125;24;20076;-89
2021/11/06 04:05:46;;;;;;;0.10;0.10;;;;;;;;;;5958020;24;20392;-90
2021/11/06 04:08:12;;;;;;;0.10;0.10;;;;;;;;;;5957928;24;20410;-89
2021/11/06 04:10:38;;;;;;;0.10;0.10;;;;;;;;;;5981259;23;20016;-89
2021/11/06 04:13:04;;;;;;;0.10;0.10;;;;;;;;;;5957904;24;20056;-89
2021/11/06 04:15:30;;;;;;;0.10;0.10;;;;;;;;;;5958134;24;20012;-89
2021/11/06 04:17:56;;;;;;;0.10;0.10;;;;;;;;;;5981212;23;20027;-89
2021/11/06 04:20:22;;;;;;;0.10;0.10;;;;;;;;;;5980955;24;20016;-89
2021/11/06 04:22:50;;;;;;;0.10;0.10;;;;;;;;;;5957834;24;20016;-89
2021/11/06 04:25:16;;;;;;;0.10;0.10;;;;;;;;;;5957511;24;20020;-89
2021/11/06 04:27:42;;;;;;;0.10;0.10;;;;;;;;;;5957789;24;20072;-90
2021/11/06 04:30:08;;;;;;;0.10;0.10;;;;;;;;;;5958229;24;20012;-90
2021/11/06 04:32:34;;;;;;;0.10;0.10;;;;;;;;;;5981247;23;20095;-89
2021/11/06 04:35:00;;;;;;;0.10;0.10;;;;;;;;;;5980875;23;20020;-89
2021/11/06 04:37:26;;;;;;;0.10;0.10;;;;;;;;;;5981016;24;20020;-90
2021/11/06 04:39:52;;;;;;;0.10;0.10;;;;;;;;;;5980991;24;20027;-89
2021/11/06 04:42:18;;;;;;;0.10;0.10;;;;;;;;;;5957469;24;20059;-89
2021/11/06 04:44:44;;;;;;;0.10;0.10;;;;;;;;;;5980345;24;20020;-90
2021/11/06 04:47:10;;;;;;;0.10;0.10;;;;;;;;;;5980909;24;20016;-89
2021/11/06 04:49:37;;;;;;;0.10;0.10;;;;;;;;;;5957730;24;20300;-90
2021/11/06 04:52:03;;;;;;;0.10;0.10;;;;;;;;;;5957874;24;20020;-89
2021/11/06 04:54:29;;;;;;;0.10;0.10;;;;;;;;;;5957267;24;20016;-89
2021/11/06 04:56:55;;;;;;;0.20;0.20;;;;;;;;;;5981044;24;20067;-89
2021/11/06 04:59:21;;;;;;;0.10;0.10;;;;;;;;;;5980636;24;20052;-90
2021/11/06 05:01:48;;;;;;;0.10;0.10;;;;;;;;;;5957471;24;20016;-89
2021/11/06 05:04:14;;;;;;;0.10;0.10;;;;;;;;;;5957417;24;20012;-90
2021/11/06 05:06:40;;;;;;;0.10;0.10;;;;;;;;;;5980408;24;20423;-90
2021/11/06 05:09:06;;;;;;;0.10;0.10;;;;;;;;;;5980782;24;20020;-89
2021/11/06 05:11:32;;;;;;;0.10;0.10;;;;;;;;;;5957490;24;20012;-89
2021/11/06 05:13:59;;;;;;;0.10;0.10;;;;;;;;;;5957168;24;20358;-90
2021/11/06 05:16:25;;;;;;;0.10;0.10;;;;;;;;;;5957232;24;20099;-89
2021/11/06 05:18:53;;;;;;;0.40;0.40;;;;;;;;;;5957445;24;20065;-89
2021/11/06 05:21:21;;;;;;;0.32;0.20;;;;;;;;;;5957159;24;20020;-90
2021/11/06 05:23:47;;;;;;;0.20;0.20;;;;;;;;;;5957375;24;20016;-89
2021/11/06 05:26:12;;;;;;;0.10;0.10;;;;;;;;;;5957245;24;20346;-89
2021/11/06 05:28:38;;;;;;;0.10;0.10;;;;;;;;;;5957445;24;20008;-89
2021/11/06 05:31:04;;;;;;;0.10;0.10;;;;;;;;;;5980664;23;20016;-89
2021/11/06 05:33:31;;;;;;;0.10;0.10;;;;;;;;;;5980397;24;20012;-89
2021/11/06 05:35:57;;;;;;;0.10;0.10;;;;;;;;;;5980369;23;20100;-89
2021/11/06 05:38:23;;;;;;;0.10;0.10;;;;;;;;;;5980455;24;20047;-89
2021/11/06 05:40:49;;;;;;;0.10;0.10;;;;;;;;;;5980342;24;20023;-89
2021/11/06 05:43:15;;;;;;;0.17;0.17;;;;;;;;;;5980379;24;20055;-89
2021/11/06 05:45:40;;;;;;;0.20;0.20;;;;;;;;;;5957238;24;20020;-89
2021/11/06 05:48:06;;;;;;;0.10;0.10;;;;;;;;;;5957026;24;20102;-89
2021/11/06 05:50:33;;;;;;;0.10;0.10;;;;;;;;;;5980236;24;20016;-89
2021/11/06 05:52:59;;;;;;;0.10;0.10;;;;;;;;;;5980215;24;20048;-89
2021/11/06 05:55:25;;;;;;;0.10;0.10;;;;;;;;;;5957144;24;20020;-89
2021/11/06 05:57:51;;;;;;;0.10;0.10;;;;;;;;;;5980125;24;20016;-89
2021/11/06 06:00:18;;;;;;;0.10;0.10;;;;;;;;;;5980215;24;20392;-89
2021/11/06 06:02:44;;;;;;;0.35;0.30;;;;;;;;;;5980184;24;20024;-89
2021/11/06 06:05:10;;;;;;;0.20;0.10;;;;;;;;;;5980221;24;20056;-89
2021/11/06 06:07:36;;;;;;;0.10;0.10;;;;;;;;;;5957472;24;20023;-89
2021/11/06 06:10:03;;;;;;;0.10;0.10;;;;;;;;;;5980501;24;20012;-89
2021/11/06 06:12:29;;;;;;;0.10;0.10;;;;;;;;;;5956889;24;20103;-89
2021/11/06 06:14:55;;;;;;;0.10;0.10;;;;;;;;;;5980176;24;20024;-89
2021/11/06 06:17:21;;;;;;;0.10;0.10;;;;;;;;;;5980082;24;20192;-89
2021/11/06 06:19:47;;;;;;;0.10;0.10;;;;;;;;;;5980028;24;20048;-89
2021/11/06 06:22:13;;;;;;;0.13;0.13;;;;;;;;;;5980046;24;20016;-89
2021/11/06 06:24:39;;;;;;;0.10;0.10;;;;;;;;;;5956970;24;20028;-89
2021/11/06 06:27:05;;;;;;;0.52;0.52;;;;;;;;;;5957267;24;20039;-90
2021/11/06 06:29:32;;;;;;;0.10;0.10;;;;;;;;;;5956994;24;20338;-89
2021/11/06 06:31:57;;;;;;;0.10;0.10;;;;;;;;;;5957205;24;20023;-90
2021/11/06 06:34:23;;;;;;;0.10;0.10;;;;;;;;;;5979655;24;20027;-90
2021/11/06 06:36:49;;;;;;;0.43;0.43;;;;;;;;;;5957305;24;20028;-90
2021/11/06 06:39:15;;;;;;;0.10;0.10;;;;;;;;;;5979947;24;20071;-89
2021/11/06 06:41:41;;;;;;;0.10;0.10;;;;;;;;;;5980140;24;20027;-90
2021/11/06 06:44:07;;;;;;;0.10;0.10;;;;;;;;;;5956696;24;20020;-89
2021/11/06 06:46:34;;;;;;;0.10;0.10;;;;;;;;;;5956633;24;20338;-89
2021/11/06 06:49:00;;;;;;;0.10;0.10;;;;;;;;;;5956831;24;20110;-89
2021/11/06 06:51:26;;;;;;;0.10;0.10;;;;;;;;;;5980139;24;20404;-89
2021/11/06 06:53:52;;;;;;;0.20;0.20;;;;;;;;;;5956818;24;20388;-89
2021/11/06 06:56:18;;;;;;;0.17;0.17;;;;;;;;;;5980053;23;20016;-90
2021/11/06 06:58:45;;;;;;;0.10;0.10;;;;;;;;;;5979975;24;20458;-90
2021/11/06 07:01:11;;;;;;;0.10;0.10;;;;;;;;;;5957137;24;20024;-90
2021/11/06 07:03:37;;;;;;;0.10;0.10;;;;;;;;;;5957047;24;20143;-89
2021/11/06 07:06:03;;;;;;;0.10;0.10;;;;;;;;;;5956674;24;20048;-90
2021/11/06 07:08:31;;;;;;;0.10;0.10;;;;;;;;;;5957637;24;20013;-90
2021/11/06 07:10:57;;;;;;;0.10;0.10;;;;;;;;;;5958820;24;20469;-93
2021/11/06 07:13:24;;;;;;;0.10;0.10;;;;;;;;;;5958932;24;20465;-90
2021/11/06 07:15:50;;;;;;;0.10;0.10;;;;;;;;;;5958829;24;20439;-90
2021/11/06 07:18:16;;;;;;;0.20;0.20;;;;;;;;;;5958834;24;20020;-88
2021/11/06 07:20:42;;;;;;;0.10;0.10;;;;;;;;;;5958892;24;20020;-89
2021/11/06 07:23:08;;;;;;;0.10;0.10;;;;;;;;;;5958727;24;20522;-89
2021/11/06 07:25:34;;;;;;;0.10;0.10;;;;;;;;;;5982198;23;20020;-94
2021/11/06 07:28:03;;;;;;;0.20;0.20;;;;;;;;;;5959341;24;20024;-94
2021/11/06 07:30:29;;;;;;;0.10;0.10;;;;;;;;;;5959466;24;20016;-94
2021/11/06 07:32:55;;;;;;;0.10;0.10;;;;;;;;;;5959542;24;20410;-94
2021/11/06 07:35:21;;;;;;;0.10;0.10;;;;;;;;;;5958980;24;20024;-95
2021/11/06 07:37:47;;;;;;;0.10;0.10;;;;;;;;;;5958965;24;20020;-89
2021/11/06 07:40:13;;;;;;;0.00;0.00;;;;;;;;;;5958713;24;20038;-89
2021/11/06 07:42:43;;;;;;;0.20;0.20;;;;;;;;;;5982194;24;20339;-94
2021/11/06 07:45:10;;;;;;;0.20;0.20;;;;;;;;;;5961921;24;20017;-92
2021/11/06 07:47:36;;;;;;;0.10;0.10;;;;;;;;;;5958451;24;20451;-90
2021/11/06 07:50:02;;;;;;;0.15;0.15;;;;;;;;;;5958311;24;20093;-91
2021/11/06 07:52:28;;;;;;;0.32;0.32;;;;;;;;;;5981425;23;20060;-91
2021/11/06 07:54:54;;;;;;;0.28;0.28;;;;;;;;;;5958645;24;20097;-89
2021/11/06 07:57:21;;;;;;;0.10;0.10;;;;;;;;;;5958381;24;20058;-90
2021/11/06 07:59:47;;;;;;;0.10;0.10;;;;;;;;;;5958258;24;20058;-88
2021/11/06 08:02:13;;;;;;;0.10;0.10;;;;;;;;;;5981219;23;20020;-89
2021/11/06 08:04:39;;;;;;;0.10;0.10;;;;;;;;;;5981148;24;20023;-89
2021/11/06 08:07:05;;;;;;;0.15;0.15;;;;;;;;;;5958164;24;20045;-90
2021/11/06 08:09:31;;;;;;;0.10;0.10;;;;;;;;;;5981145;23;20016;-90
2021/11/06 08:11:57;;;;;;;0.10;0.10;;;;;;;;;;5981249;24;20012;-89
2021/11/06 08:14:23;;;;;;;0.10;0.10;;;;;;;;;;5958052;24;20168;-89
2021/11/06 08:16:50;;;;;;;0.10;0.10;;;;;;;;;;5981301;23;20020;-88
2021/11/06 08:19:16;;;;;;;0.82;0.82;;;;;;;;;;5981425;23;20031;-90
2021/11/06 08:21:43;;;;;;;0.10;0.10;;;;;;;;;;5957996;24;20024;-89
2021/11/06 08:24:09;;;;;;;0.10;0.10;;;;;;;;;;5958504;24;20450;-92
2021/11/06 08:26:35;;;;;;;0.13;0.10;;;;;;;;;;5981497;23;20024;-92
2021/11/06 08:29:01;;;;;;;0.10;0.10;;;;;;;;;;5958151;24;20019;-89
2021/11/06 08:31:27;;;;;;;0.13;0.13;;;;;;;;;;5957868;24;20048;-89
2021/11/06 08:33:53;;;;;;;0.73;0.20;;;;;;;;;;5980945;23;20039;-89
2021/11/06 08:36:19;;;;;;;0.10;0.10;;;;;;;;;;6004530;23;20094;-89
2021/11/06 08:38:45;;;;;;;0.10;0.10;;;;;;;;;;5957976;24;20095;-89
2021/11/06 08:41:11;;;;;;;0.10;0.10;;;;;;;;;;5958335;24;20024;-88
2021/11/06 08:43:37;;;;;;;0.10;0.10;;;;;;;;;;5957696;24;20020;-88
2021/11/06 08:46:04;;;;;;;0.10;0.10;;;;;;;;;;5958228;24;20339;-88
2021/11/06 08:48:30;;;;;;;0.10;0.10;;;;;;;;;;5959654;24;20040;-88
2021/11/06 08:50:56;;;;;;;0.10;0.10;;;;;;;;;;5983689;23;20049;-89
2021/11/06 08:53:22;;;;;;;0.10;0.10;;;;;;;;;;6031243;23;20016;-89
2021/11/06 08:55:48;;;;;;;0.10;0.10;;;;;;;;;;5975275;24;20027;-88
2021/11/06 08:58:14;;;;;;;0.35;0.35;;;;;;;;;;5980868;24;20380;-89
2021/11/06 09:00:42;;;;;;;0.10;0.10;;;;;;;;;;5980838;24;20038;-89
2021/11/06 09:03:11;;;;;;;0.30;0.30;;;;;;;;;;5980957;23;20023;-89
2021/11/06 09:05:37;;;;;;;0.10;0.10;;;;;;;;;;5980636;24;20027;-89
2021/11/06 09:08:03;;;;;;;0.10;0.10;;;;;;;;;;5980577;23;20052;-89
2021/11/06 09:10:29;;;;;;;0.10;0.10;;;;;;;;;;5980587;24;20018;-89
2021/11/06 09:12:55;;;;;;;0.20;0.20;;;;;;;;;;5980346;23;20012;-89
2021/11/06 09:15:21;;;;;;;0.10;0.10;;;;;;;;;;5980768;23;20071;-88
2021/11/06 09:17:49;;;;;;;0.10;0.10;;;;;;;;;;5980661;24;20395;-89
2021/11/06 09:20:15;;;;;;;0.20;0.20;;;;;;;;;;5979241;23;20372;-88
2021/11/06 09:22:41;;;;;;;0.10;0.10;;;;;;;;;;5980385;24;20045;-90
2021/11/06 09:25:07;;;;;;;0.10;0.10;;;;;;;;;;5957393;24;20415;-90
2021/11/06 09:27:34;;;;;;;0.20;0.20;;;;;;;;;;5957540;24;20128;-90
2021/11/06 09:30:00;;;;;;;0.10;0.10;;;;;;;;;;5957196;24;20023;-90
2021/11/06 09:32:26;;;;;;;0.10;0.10;;;;;;;;;;5980052;24;20404;-90
2021/11/06 09:34:52;;;;;;;0.10;0.10;;;;;;;;;;5980137;23;20020;-88
2021/11/06 09:37:18;;;;;;;0.10;0.10;;;;;;;;;;6003585;23;20343;-88
2021/11/06 09:39:44;;;;;;;0.10;0.10;;;;;;;;;;5956918;24;20117;-88
2021/11/06 09:42:10;;;;;;;0.17;0.17;;;;;;;;;;5980342;24;20048;-88
2021/11/06 09:44:36;;;;;;;0.10;0.10;;;;;;;;;;5980258;24;20016;-88
2021/11/06 09:47:10;;;;;;;0.10;0.10;;;;;;;;;;5980247;24;20044;-89
2021/11/06 09:49:36;;;;;;;0.10;0.10;;;;;;;;;;5957024;24;20388;-88
2021/11/06 09:52:02;;;;;;;0.10;0.10;;;;;;;;;;5980007;23;20046;-89
2021/11/06 09:54:28;;;;;;;0.10;0.10;;;;;;;;;;5980344;24;20068;-88
2021/11/06 09:56:55;;;;;;;0.25;0.25;;;;;;;;;;5957470;24;20060;-89
2021/11/06 09:59:21;;;;;;;0.20;0.15;;;;;;;;;;5957096;24;20020;-89
2021/11/06 10:01:47;;;;;;;7.32;0.35;;;;;;;;;;5957085;24;20012;-89
2021/11/06 10:04:13;;;;;;;0.10;0.10;;;;;;;;;;5979987;23;20069;-88
2021/11/06 10:06:44;;;;;;;0.10;0.10;;;;;;;;;;5980098;24;20020;-89
2021/11/06 10:09:10;;;;;;;0.10;0.10;;;;;;;;;;5956796;24;20020;-90
2021/11/06 10:11:36;;;;;;;0.10;0.10;;;;;;;;;;5980144;23;20426;-88
2021/11/06 10:14:04;;;;;;;0.10;0.10;;;;;;;;;;5979988;24;20311;-88
2021/11/06 10:16:59;;;;;;;0.25;0.25;;;;;;;;;;5956903;24;20016;-89
2021/11/06 10:19:31;;;;;;;0.10;0.10;;;;;;;;;;5974525;24;20383;-89
2021/11/06 10:22:06;;;;;;;0.10;0.10;;;;;;;;;;5979988;24;20016;-88
2021/11/06 10:24:48;;;;;;;0.10;0.10;;;;;;;;;;5980344;24;20342;-88
2021/11/06 10:27:16;;;;;;;0.10;0.10;;;;;;;;;;6003619;23;20027;-91
2021/11/06 10:29:42;;;;;;;0.10;0.10;;;;;;;;;;5957642;24;20012;-95
2021/11/06 10:32:08;;;;;;;0.10;0.10;;;;;;;;;;5959752;24;20045;-91
2021/11/06 10:34:36;;;;;;;0.10;0.10;;;;;;;;;;5957074;24;20394;-92
2021/11/06 10:37:12;;;;;;;0.17;0.17;;;;;;;;;;5957339;24;20342;-89
2021/11/06 10:39:58;;;;;;;0.10;0.10;;;;;;;;;;5979787;24;20180;-91
2021/11/06 10:42:24;;;;;;;0.20;0.20;;;;;;;;;;5980472;24;20052;-90
2021/11/06 10:44:50;;;;;;;0.10;0.10;;;;;;;;;;5956483;24;20350;-91
2021/11/06 10:47:16;;;;;;;0.20;0.20;;;;;;;;;;5980095;24;20016;-89
2021/11/06 10:49:43;;;;;;;1.00;1.00;;;;;;;;;;5956494;24;20071;-92
2021/11/06 10:52:10;;;;;;;0.10;0.10;;;;;;;;;;5956780;24;20343;-91
2021/11/06 10:54:56;;;;;;;0.20;0.20;;;;;;;;;;5956793;24;20027;-90
2021/11/06 10:57:25;;;;;;;0.20;0.20;;;;;;;;;;5956367;24;20092;-92
2021/11/06 11:00:10;;;;;;;0.10;0.10;;;;;;;;;;5957391;24;20016;-92
2021/11/06 11:02:36;;;;;;;0.20;0.20;;;;;;;;;;5957064;24;20016;-96
2021/11/06 11:05:02;;;;;;;0.10;0.10;;;;;;;;;;5957173;24;20064;-87
2021/11/06 11:07:28;;;;;;;0.10;0.10;;;;;;;;;;5979682;24;20439;-89
2021/11/06 11:09:54;;;;;;;0.10;0.10;;;;;;;;;;5957002;24;20022;-89
2021/11/06 11:12:20;;;;;;;0.15;0.15;;;;;;;;;;5957157;24;20019;-93
2021/11/06 11:14:56;;;;;;;0.20;0.20;;;;;;;;;;5957217;24;20458;-88
2021/11/06 11:17:42;;;;;;;0.10;0.10;;;;;;;;;;5979256;24;20099;-91
2021/11/06 11:20:38;;;;;;;0.10;0.10;;;;;;;;;;5979466;23;20013;-88
2021/11/06 11:23:14;;;;;;;0.13;0.13;;;;;;;;;;5978037;24;20095;-89
2021/11/06 11:25:40;;;;;;;0.10;0.10;;;;;;;;;;5979025;24;20482;-88
2021/11/06 11:28:07;;;;;;;0.20;0.20;;;;;;;;;;5979377;23;20018;-88
2021/11/06 11:30:33;;;;;;;0.10;0.10;;;;;;;;;;5956304;24;20016;-88
2021/11/06 11:33:00;;;;;;;0.10;0.10;;;;;;;;;;5956149;24;20072;-88
2021/11/06 11:35:26;;;;;;;0.20;0.20;;;;;;;;;;5979303;23;20356;-88
2021/11/06 11:37:54;;;;;;;0.10;0.10;;;;;;;;;;6002620;23;20099;-88
2021/11/06 11:40:20;;;;;;;0.20;0.20;;;;;;;;;;5979518;24;20020;-88
2021/11/06 11:42:49;;;;;;;0.15;0.15;;;;;;;;;;5979089;24;20048;-89
2021/11/06 11:45:27;;;;;;;0.30;0.30;;;;;;;;;;5978986;23;20016;-88
2021/11/06 11:47:56;;;;;;;1.17;0.28;;;;;;;;;;5978991;24;20458;-90
2021/11/06 11:50:30;;;;;;;0.10;0.10;;;;;;;;;;5978710;24;20012;-89
2021/11/06 11:52:56;;;;;;;0.10;0.10;;;;;;;;;;5980043;24;20016;-88
2021/11/06 11:55:42;;;;;;;0.20;0.20;;;;;;;;;;5980181;23;20087;-87
2021/11/06 11:58:10;;;;;;;0.30;0.20;;;;;;;;;;5980637;24;20020;-88
2021/11/06 12:00:37;;;;;;;0.10;0.10;;;;;;;;;;5981287;24;20120;-88
2021/11/06 12:03:07;;;;;;;0.20;0.20;;;;;;;;;;5980960;24;20484;-88
2021/11/06 12:05:36;;;;;;;0.10;0.10;;;;;;;;;;5980945;24;20020;-86
2021/11/06 12:08:12;;;;;;;0.10;0.10;;;;;;;;;;5981281;23;20038;-87
2021/11/06 12:10:40;;;;;;;0.10;0.10;;;;;;;;;;5981118;24;20017;-87
2021/11/06 12:13:06;;;;;;;0.10;0.10;;;;;;;;;;5979633;23;20017;-87
2021/11/06 12:15:50;;;;;;;0.10;0.10;;;;;;;;;;5981148;24;20067;-87
2021/11/06 12:18:35;;;;;;;0.10;0.10;;;;;;;;;;5981223;23;20027;-87
2021/11/06 12:21:14;;;;;;;0.10;0.10;;;;;;;;;;5980972;23;20024;-87
2021/11/06 12:23:40;;;;;;;0.10;0.10;;;;;;;;;;5981121;24;20023;-85
2021/11/06 12:26:19;;;;;;;0.10;0.10;;;;;;;;;;5957468;24;20358;-86
2021/11/06 12:28:46;;;;;;;0.10;0.10;;;;;;;;;;5981209;23;20016;-86
2021/11/06 12:31:24;;;;;;;0.10;0.10;;;;;;;;;;5957781;24;20447;-86
2021/11/06 12:33:50;;;;;;;0.10;0.10;;;;;;;;;;5980744;23;20388;-86
2021/11/06 12:36:19;;;;;;;0.10;0.10;;;;;;;;;;5956966;24;20088;-86
2021/11/06 12:38:45;;;;;;;0.10;0.10;;;;;;;;;;5980488;24;20020;-86
2021/11/06 12:41:11;;;;;;;0.10;0.10;;;;;;;;;;5980856;24;20116;-86
2021/11/06 12:43:48;;;;;;;0.10;0.10;;;;;;;;;;5980949;24;20020;-86
2021/11/06 12:46:27;;;;;;;0.10;0.10;;;;;;;;;;5957755;24;20024;-86
2021/11/06 12:48:54;;;;;;;0.10;0.10;;;;;;;;;;5980694;24;20026;-86
2021/11/06 12:51:27;;;;;;;0.10;0.10;;;;;;;;;;5979867;23;20016;-86
2021/11/06 12:53:54;;;;;;;0.10;0.10;;;;;;;;;;5980779;24;20345;-86
2021/11/06 12:56:21;;;;;;;0.10;0.10;;;;;;;;;;5980952;24;20016;-85
2021/11/06 12:58:48;;;;;;;0.10;0.10;;;;;;;;;;5957633;24;20020;-86
2021/11/06 13:01:17;;;;;;;0.10;0.10;;;;;;;;;;5980863;23;20031;-85
2021/11/06 13:03:44;;;;;;;0.20;0.20;;;;;;;;;;5980747;24;20020;-86
2021/11/06 13:06:20;;;;;;;0.10;0.10;;;;;;;;;;5979818;24;20048;-86
2021/11/06 13:09:06;;;;;;;0.20;0.20;;;;;;;;;;5980620;24;20072;-86
2021/11/06 13:12:05;;;;;;;0.10;0.10;;;;;;;;;;5975892;24;20104;-86
2021/11/06 13:14:49;;;;;;;0.10;0.10;;;;;;;;;;5965548;23;20040;-87
2021/11/06 13:17:16;;;;;;;0.22;0.22;;;;;;;;;;5981105;23;20406;-86
2021/11/06 13:19:48;;;;;;;0.20;0.20;;;;;;;;;;6006877;23;20016;-85
2021/11/06 13:22:26;;;;;;;0.17;0.17;;;;;;;;;;6003200;24;20085;-86
2021/11/06 13:24:59;;;;;;;0.10;0.10;;;;;;;;;;5992754;23;20020;-87
2021/11/06 13:27:39;;;;;;;0.10;0.10;;;;;;;;;;5980516;24;20023;-87
2021/11/06 13:30:15;;;;;;;0.10;0.10;;;;;;;;;;5980606;23;20020;-87
2021/11/06 13:32:53;;;;;;;0.17;0.17;;;;;;;;;;5980344;23;20103;-87
2021/11/06 13:35:20;;;;;;;0.15;0.15;;;;;;;;;;5980327;23;20159;-85
2021/11/06 13:37:46;;;;;;;0.20;0.20;;;;;;;;;;6003733;23;20419;-85
2021/11/06 13:40:12;;;;;;;0.10;0.10;;;;;;;;;;5980239;24;20023;-86
2021/11/06 13:42:38;;;;;;;0.10;0.10;;;;;;;;;;5980305;24;20091;-85
2021/11/06 13:45:11;;;;;;;0.17;0.17;;;;;;;;;;5980241;24;20020;-85
2021/11/06 13:47:37;;;;;;;;;;;;;;;;;;5957585;24;20393;-90
2021/11/06 13:50:03;;;;;;;0.10;0.10;;;;;;;;;;5980475;23;19922;-87
2021/11/06 13:52:29;;;;;;;0.10;0.10;;;;;;;;;;5980177;24;20171;-86
2021/11/06 13:54:55;;;;;;;0.10;0.10;;;;;;;;;;5956886;24;20051;-86
2021/11/06 13:57:22;;;;;;;0.10;0.10;;;;;;;;;;5956869;24;20035;-87
2021/11/06 14:00:01;;;;;;;0.20;0.20;;;;;;;;;;5979645;24;20311;-86
2021/11/06 14:02:28;;;;;;;0.10;0.10;;;;;;;;;;5980000;24;20446;-87
2021/11/06 14:05:01;;;;;;;0.10;0.10;;;;;;;;;;5980190;24;20067;-87
2021/11/06 14:07:27;;;;;;;0.10;0.10;;;;;;;;;;5980158;24;20017;-87
2021/11/06 14:10:04;;;;;;;0.10;0.10;;;;;;;;;;5956822;24;20477;-87
2021/11/06 14:12:40;;;;;;;0.10;0.10;;;;;;;;;;5980245;24;20470;-87
2021/11/06 14:15:27;;;;;;;0.10;0.10;;;;;;;;;;5980367;24;20022;-89
2021/11/06 14:17:54;;;;;;;0.10;0.10;;;;;;;;;;5979549;24;20023;-87
2021/11/06 14:20:33;;;;;;;0.10;0.10;;;;;;;;;;5956426;24;20020;-88
2021/11/06 14:22:59;;;;;;;0.10;0.10;;;;;;;;;;5979637;24;20020;-89
2021/11/06 14:25:29;;;;;;;0.10;0.10;;;;;;;;;;5980047;24;20012;-88
2021/11/06 14:28:14;;;;;;;0.20;0.20;;;;;;;;;;5979637;24;20081;-87
2021/11/06 14:30:46;;;;;;;0.20;0.20;;;;;;;;;;5979573;23;20017;-86
2021/11/06 14:33:12;;;;;;;0.10;0.10;;;;;;;;;;5979373;24;20058;-87
2021/11/06 14:35:38;;;;;;;0.10;0.10;;;;;;;;;;5979613;24;20020;-90
2021/11/06 14:38:04;;;;;;;0.20;0.20;;;;;;;;;;5956371;24;20028;-86
2021/11/06 14:40:30;;;;;;;0.10;0.10;;;;;;;;;;5956489;24;20354;-86
2021/11/06 14:43:06;;;;;;;0.30;0.30;;;;;;;;;;5979453;24;20023;-87
2021/11/06 14:45:34;;;;;;;0.10;0.10;;;;;;;;;;5979396;24;20346;-87
2021/11/06 14:48:00;;;;;;;0.10;0.10;;;;;;;;;;5979465;23;20016;-88